Eduardo Gomes International Airport
SBEG : rendu visible

Aérodrome :











RETROUVEZ-NOUS SUR...

 
LOGIN :

S'inscrire | Disclaimer

   EN    FR    IT 

 









Légende :    VFR   VFR Marginal   IFR   IFR Intensif   IFR Très Intensif
Visi : 
Plafond : 
>= 8 km
>= 3000ft
5 à 8 km
1000 à 3000 ft
1500m à 5 km
500 à 1000 ft
800 à 1500m
200 à 500 ft
< 800m
< 200 ft
Symboles :   Orages  Brouillard  Fortes neiges  Fortes précipitations  Vent > 20 kt






- Altitude de l'aérodrome : 264 ft
- Code IATA : MAO


SBEG - Eduardo Gomes International

DERNIER METAR :
  • 241700Z 32003KT 9999 SCT010 FEW025TCU BKN080 25/24 Q1011

METARs EXPIRÉS :
  • 241613Z 22007KT 7000 -RA FEW003 BKN016 OVC080 24/23 Q1011 RERA
  • 241600Z 27004KT 2000 RA SCT003 BKN015 FEW025TCU OVC080 24/24 Q1012
  • 241516Z 27005KT 2000 RA BKN005 FEW025TCU 25/24 Q1012
  • 241500Z 01001KT 7000 -RA FEW004 SCT009 FEW025TCU BKN080 25/24 Q1012 RERA

TAF TAF SBEG
Valide du 24 à 18h jusqu'au 25 à 18h UTC


241635Z 2418/2518 32005KT 7000 SCT016 FEW030TCU TX29/2419Z TN24/2510Z
PROB40 2418/2421 27005KT TSRA BKN015 FEW025CB
BECMG 2500/2502 35005KT 9999 FEW030
BECMG 2506/2508 30005KT 7000 SCT020
BECMG 251/2514 36005KT 9999 BKN020
BECMG 2515/2516 17010KT 7000 BKN017 FEW030TCU RMK PGB
FIR SBAZ / Amérique du Sud



MET'MAP, la Météo Aéronautique d'un coup d'oeil ! - Copyright ORBIFLY Décembre 2007 - Disclaimer

ORBIFLY MET'MAP TEAM :

Programmation & Développement : Alexandra Zaïnal
Sur une idée originale de : Baudouin d'Aumeries
Assistance à la programmation : Marc-Olivier Méhu
Soutien technique & logistique : Manuel Goepfert

Contact : metmap@orbifly.com




SOURCES & CREDITS :

   NOAA       Earth
Advisory